Weather History for KTQH - October, 2013

Change the Weather History Date:

Thursday, October 17, 2013

  Actual Average (KMKO) Record (KMKO)
Temperature  
Mean Temperature 50 °F -  
Max Temperature 64 °F 71 °F 93 °F (2005)
Min Temperature 35 °F 47 °F 34 °F (2002)
Degree Days  
Heating Degree Days 16    
Moisture  
Dew Point 42 °F    
Average Humidity 82    
Maximum Humidity 100    
Minimum Humidity 45    
Precipitation  
Precipitation 0.00 in - - ()
Sea Level Pressure  
Sea Level Pressure 30.05 in    
Wind  
Wind Speed 1 mph (WSW)    
Max Wind Speed 7 mph    
Max Gust Speed -    
Visibility 8 miles    
Events Fog    
Averages and records for this station are not official NWS values.
T = Trace of Precipitation, MM = Missing Value Source: NWS Daily Summary

Daily Weather History Graph

Daily Weather History Graph

Search for Another Location

Airport or City:

Trip Planner

Search our weather history database for the weather conditions in past years. The results will help you decide how hot, cold, wet, or windy it might be!

Date:

Astronomy

Oct. 17, 2013 Rise Set
Actual Time 7:28 AM CDT 6:41 PM CDT
Civil Twilight 7:02 AM CDT 7:07 PM CDT
Nautical Twilight 6:33 AM CDT 7:36 PM CDT
Astronomical Twilight 6:03 AM CDT 8:06 PM CDT
Moon 5:55 PM CDT (10/17) 6:03 AM CDT (10/17)
Length of Visible Light 12h 04m
Length of Day
11h 12m
Waxing Gibbous, 98% of the Moon is Illuminated
Oct 17
Waxing Gibbous
Oct 18
Full
Oct 26
Last Quarter
Nov 3
New
Nov 9
First Quarter

Hourly Weather History & Observations

Time (CDT) Temp. Windchill Dew Point Humidity Pressure Visibility Wind Dir Wind Speed Gust Speed Precip Events Conditions
12:15 AM 44.6 °F - 42.8 °F 93% 30.05 in 10.0 mi Calm Calm - N/A   Clear
12:35 AM 44.6 °F - 42.8 °F 93% 30.04 in 10.0 mi Calm Calm - N/A   Scattered Clouds
12:55 AM 42.8 °F 41.1 °F 42.8 °F 100% 30.06 in 10.0 mi WNW 3.5 mph - N/A   Clear
1:15 AM 42.8 °F - 42.8 °F 100% 30.07 in 10.0 mi Calm Calm - N/A   Clear
1:35 AM 42.8 °F - 42.8 °F 100% 30.07 in 10.0 mi Calm Calm - N/A   Clear
1:55 AM 42.8 °F - 42.8 °F 100% 30.07 in 10.0 mi Calm Calm - N/A   Clear
2:15 AM 42.8 °F - 42.8 °F 100% 30.07 in 10.0 mi Calm Calm - N/A   Clear
2:35 AM 42.8 °F - 41.0 °F 93% 30.07 in 10.0 mi Calm Calm - N/A   Clear
2:55 AM 42.8 °F - 41.0 °F 93% 30.07 in 10.0 mi Calm Calm - N/A   Clear
3:15 AM 42.8 °F - 41.0 °F 93% 30.07 in 7.0 mi Calm Calm - N/A   Clear
3:35 AM 41.0 °F - 41.0 °F 100% 30.07 in 2.5 mi Calm Calm - N/A   Clear
3:55 AM 41.0 °F - 41.0 °F 100% 30.06 in 1.5 mi Calm Calm - N/A   Mist
4:15 AM 39.2 °F - 39.2 °F 100% 30.05 in 7.0 mi Calm Calm - N/A   Clear
4:35 AM 39.2 °F - 39.2 °F 100% 30.06 in 1.0 mi Calm Calm - N/A   Mist
4:55 AM 39.2 °F - 37.4 °F 93% 30.07 in 1.0 mi Calm Calm - N/A   Mist
5:15 AM 37.4 °F - 37.4 °F 100% 30.07 in 0.5 mi Calm Calm - N/A Fog Fog
5:35 AM 37.4 °F - 37.4 °F 100% 30.07 in 1.0 mi Calm Calm - N/A   Mist
5:55 AM 37.4 °F - 37.4 °F 100% 30.06 in 1.8 mi Calm Calm - N/A   Mist
6:15 AM 37.4 °F - 37.4 °F 100% 30.07 in - Calm Calm - N/A   Unknown
6:35 AM 35.6 °F - 35.6 °F 100% 30.07 in 0.2 mi Calm Calm - N/A Fog Fog
6:55 AM 35.6 °F - 35.6 °F 100% 30.08 in 0.5 mi Calm Calm - N/A Fog Fog
7:15 AM 35.6 °F - 35.6 °F 100% 30.08 in 0.2 mi Calm Calm - N/A Fog Fog
7:35 AM 35.6 °F - 35.6 °F 100% 30.07 in 0.5 mi Calm Calm - N/A Fog Fog
7:55 AM 37.4 °F - 37.4 °F 100% 30.07 in 0.2 mi Calm Calm - N/A Fog Fog
8:15 AM 37.4 °F - 37.4 °F 100% 30.08 in 0.2 mi Calm Calm - N/A Fog Fog
8:35 AM 41.0 °F - 41.0 °F 100% 30.09 in 0.2 mi Calm Calm - N/A Fog Fog
8:55 AM 41.0 °F - 41.0 °F 100% 30.09 in 0.2 mi Calm Calm - N/A Fog Fog
9:15 AM 44.6 °F - 44.6 °F 100% 30.10 in 2.0 mi Calm Calm - N/A   Overcast
9:35 AM 46.4 °F - 46.4 °F 100% 30.10 in 7.0 mi Calm Calm - N/A   Scattered Clouds
9:55 AM 46.4 °F - 46.4 °F 100% 30.11 in 10.0 mi Calm Calm - N/A   Scattered Clouds
10:15 AM 50.0 °F - 44.6 °F 82% 30.11 in 10.0 mi Calm Calm - N/A   Clear
10:35 AM 51.8 °F - 46.4 °F 82% 30.10 in 10.0 mi Calm Calm - N/A   Clear
10:55 AM 51.8 °F - 44.6 °F 76% 30.10 in 10.0 mi Calm Calm - N/A   Clear
11:15 AM 53.6 °F - 44.6 °F 72% 30.10 in 10.0 mi Calm Calm - N/A   Clear
11:35 AM 53.6 °F - 42.8 °F 67% 30.10 in 10.0 mi Calm Calm - N/A   Clear
11:55 AM 55.4 °F - 44.6 °F 67% 30.10 in 10.0 mi Calm Calm - N/A   Clear
12:15 PM 57.2 °F - 44.6 °F 63% 30.09 in 10.0 mi SW 4.6 mph - N/A   Clear
12:35 PM 59.0 °F - 44.6 °F 59% 30.07 in 10.0 mi Calm Calm - N/A   Clear
12:55 PM 59.0 °F - 44.6 °F 59% 30.07 in 10.0 mi Calm Calm - N/A   Clear
1:15 PM 59.0 °F - 44.6 °F 59% 30.06 in 10.0 mi Calm Calm - N/A   Clear
1:35 PM 60.8 °F - 44.6 °F 55% 30.05 in 10.0 mi SSW 4.6 mph - N/A   Clear
1:55 PM 60.8 °F - 44.6 °F 55% 30.04 in 10.0 mi Calm Calm - N/A   Clear
2:15 PM 62.6 °F - 42.8 °F 48% 30.04 in 10.0 mi West 4.6 mph - N/A   Clear
2:35 PM 62.6 °F - 42.8 °F 48% 30.03 in 10.0 mi Calm Calm - N/A   Clear
2:55 PM 62.6 °F - 42.8 °F 48% 30.02 in 10.0 mi West 6.9 mph - N/A   Clear
3:15 PM 62.6 °F - 42.8 °F 48% 30.02 in 10.0 mi SW 3.5 mph - N/A   Clear
3:35 PM 62.6 °F - 42.8 °F 48% 30.02 in 10.0 mi West 3.5 mph - N/A   Clear
3:55 PM 64.4 °F - 42.8 °F 45% 30.01 in 10.0 mi WSW 5.8 mph - N/A   Clear
4:15 PM 62.6 °F - 42.8 °F 48% 30.01 in 10.0 mi West 4.6 mph - N/A   Clear
4:35 PM 62.6 °F - 44.6 °F 52% 30.01 in 10.0 mi Calm Calm - N/A   Clear
4:55 PM 62.6 °F - 42.8 °F 48% 30.00 in 10.0 mi SW 5.8 mph - N/A   Clear
5:15 PM 62.6 °F - 42.8 °F 48% 30.00 in 10.0 mi Calm Calm - N/A   Clear
5:35 PM 62.6 °F - 44.6 °F 52% 30.00 in 10.0 mi SSW 4.6 mph - N/A   Clear
5:55 PM 62.6 °F - 44.6 °F 52% 30.00 in 10.0 mi SW 3.5 mph - N/A   Clear
6:15 PM 60.8 °F - 42.8 °F 52% 29.99 in 10.0 mi Calm Calm - N/A   Clear
6:35 PM 59.0 °F - 44.6 °F 59% 29.99 in 10.0 mi Calm Calm - N/A   Clear
6:55 PM 55.4 °F - 44.6 °F 67% 30.00 in 10.0 mi Calm Calm - N/A   Clear
7:15 PM 51.8 °F - 46.4 °F 82% 30.00 in 10.0 mi Calm Calm - N/A   Clear
7:35 PM 50.0 °F - 44.6 °F 82% 30.00 in 10.0 mi Calm Calm - N/A   Clear
7:55 PM 46.4 °F - 44.6 °F 93% 30.01 in 10.0 mi Calm Calm - N/A   Clear
8:15 PM 46.4 °F - 44.6 °F 93% 30.01 in 10.0 mi Calm Calm - N/A   Clear
8:35 PM 46.4 °F - 44.6 °F 93% 30.02 in 10.0 mi Calm Calm - N/A   Clear
8:55 PM 44.6 °F - 44.6 °F 100% 30.02 in 10.0 mi Calm Calm - N/A   Clear
9:15 PM 44.6 °F - 44.6 °F 100% 30.02 in 10.0 mi Calm Calm - N/A   Clear
9:35 PM 44.6 °F - 44.6 °F 100% 30.02 in 10.0 mi Calm Calm - N/A   Clear
9:55 PM 44.6 °F - 42.8 °F 93% 30.03 in 7.0 mi Calm Calm - N/A   Clear
10:15 PM 44.6 °F - 42.8 °F 93% 30.03 in 10.0 mi Calm Calm - N/A   Clear
10:35 PM 42.8 °F - 42.8 °F 100% 30.03 in 10.0 mi Calm Calm - N/A   Clear
10:55 PM 42.8 °F - 42.8 °F 100% 30.03 in 10.0 mi Calm Calm - N/A   Clear
11:15 PM 42.8 °F - 42.8 °F 100% 30.04 in 10.0 mi Calm Calm - N/A   Clear
11:35 PM 42.8 °F - 41.0 °F 93% 30.04 in 10.0 mi Calm Calm - N/A   Clear
11:55 PM 42.8 °F - 42.8 °F 100% 30.04 in 10.0 mi Calm Calm - N/A   Clear